Time;durP1;ratioP1;P1;durP2;ratioP2;P2;SDS_P1;SDS_P2;PMS_P1;PMS_P2;Temp;Humidity;BMP_temperature;BMP_pressure;BME280_temperature;BME280_humidity;BME280_pressure;Samples;Min_cycle;Max_cycle;Signal;HPM_P1;HPM_P2
2021/04/23 00:02:20;;;;;;;3.63;2.40;;;11.50;99.90;;;;;;5090022;28;20209;-74
2021/04/23 00:04:46;;;;;;;2.93;2.63;;;11.40;99.90;;;;;;5090433;28;20201;-77
2021/04/23 00:07:13;;;;;;;3.53;3.23;;;11.40;99.90;;;;;;5090255;28;20242;-74
2021/04/23 00:09:39;;;;;;;2.43;2.23;;;11.40;99.90;;;;;;5094567;28;20205;-76
2021/04/23 00:12:09;;;;;;;3.37;2.97;;;11.40;99.90;;;;;;5094045;28;20673;-74
2021/04/23 00:14:40;;;;;;;3.33;2.83;;;11.30;99.90;;;;;;5094109;28;20202;-72
2021/04/23 00:17:07;;;;;;;2.73;2.53;;;11.40;99.90;;;;;;5094086;28;20228;-73
2021/04/23 00:19:33;;;;;;;5.53;3.37;;;11.30;99.90;;;;;;5094009;28;20201;-75
2021/04/23 00:22:00;;;;;;;3.90;2.73;;;11.30;99.90;;;;;;5094117;28;20676;-78
2021/04/23 00:24:27;;;;;;;3.10;2.80;;;11.30;99.90;;;;;;5094483;28;20210;-73
2021/04/23 00:26:54;;;;;;;3.37;3.07;;;11.30;99.90;;;;;;5094480;28;20197;-76
2021/04/23 00:29:21;;;;;;;4.27;3.07;;;11.20;99.90;;;;;;5093520;28;20734;-73
2021/04/23 00:31:51;;;;;;;4.27;2.80;;;11.20;99.90;;;;;;5094383;28;20566;-73
2021/04/23 00:34:17;;;;;;;2.73;2.50;;;11.10;99.90;;;;;;5093614;28;20205;-76
2021/04/23 00:36:44;;;;;;;2.97;2.67;;;11.10;99.90;;;;;;5093616;28;20709;-74
2021/04/23 00:39:10;;;;;;;3.37;2.73;;;11.10;99.90;;;;;;5093616;28;20692;-72
2021/04/23 00:41:37;;;;;;;3.87;3.27;;;11.20;99.90;;;;;;5093589;28;20665;-73
2021/04/23 00:44:05;;;;;;;2.97;2.77;;;11.20;99.90;;;;;;5093439;28;20723;-75
2021/04/23 00:46:34;;;;;;;3.70;2.80;;;11.10;99.90;;;;;;5093838;28;20201;-73
2021/04/23 00:49:03;;;;;;;3.40;2.30;;;11.00;99.90;;;;;;5093285;28;20210;-73
2021/04/23 00:51:33;;;;;;;2.20;2.00;;;11.00;99.90;;;;;;5093247;28;20733;-74
2021/04/23 00:54:00;;;;;;;3.80;2.97;;;10.90;99.90;;;;;;5093695;28;20688;-72
2021/04/23 00:56:33;;;;;;;2.77;2.57;;;11.00;99.90;;;;;;5093784;28;20233;-73
2021/04/23 00:59:00;;;;;;;2.20;2.10;;;11.00;99.90;;;;;;5093587;28;20205;-74
2021/04/23 01:01:29;;;;;;;2.73;2.53;;;11.00;99.90;;;;;;5094024;28;20212;-73
2021/04/23 01:03:56;;;;;;;4.10;3.07;;;10.90;99.90;;;;;;5093517;28;20212;-75
2021/04/23 01:06:26;;;;;;;3.30;3.00;;;10.90;99.90;;;;;;5092880;28;20205;-73
2021/04/23 01:08:54;;;;;;;3.07;2.77;;;10.90;99.90;;;;;;5076376;28;20209;-76
2021/04/23 01:11:22;;;;;;;2.83;2.63;;;10.80;99.90;;;;;;5072971;28;20209;-76
2021/04/23 01:13:50;;;;;;;2.87;2.67;;;10.70;99.90;;;;;;5072847;28;20210;-73
2021/04/23 01:16:18;;;;;;;2.90;2.60;;;10.70;99.90;;;;;;5072533;28;20249;-74
2021/04/23 01:18:46;;;;;;;2.77;2.57;;;10.60;99.90;;;;;;5072130;28;20288;-75
2021/04/23 01:21:18;;;;;;;4.20;2.70;;;10.70;99.90;;;;;;5072745;28;20206;-73
2021/04/23 01:23:46;;;;;;;2.80;2.60;;;10.60;99.90;;;;;;5072912;28;20628;-75
2021/04/23 01:26:13;;;;;;;3.20;2.60;;;10.50;99.90;;;;;;5072557;28;20252;-73
2021/04/23 01:28:41;;;;;;;3.93;2.90;;;10.40;99.90;;;;;;5072390;28;20728;-74
2021/04/23 01:31:10;;;;;;;3.77;3.13;;;10.40;99.90;;;;;;5072291;28;20670;-73
2021/04/23 01:33:38;;;;;;;3.00;2.70;;;10.30;99.90;;;;;;5072209;28;20206;-75
2021/04/23 01:36:06;;;;;;;3.93;2.80;;;10.30;99.90;;;;;;5072452;28;20303;-73
2021/04/23 01:38:34;;;;;;;3.17;2.87;;;10.20;99.90;;;;;;5072531;28;20210;-75
2021/04/23 01:41:01;;;;;;;5.73;3.23;;;10.10;99.90;;;;;;5072148;28;20206;-73
2021/04/23 01:43:27;;;;;;;3.50;3.10;;;10.10;99.90;;;;;;5072563;28;20690;-75
2021/04/23 01:45:54;;;;;;;3.10;2.80;;;10.10;99.90;;;;;;5072649;28;20238;-76
2021/04/23 01:48:20;;;;;;;3.60;3.30;;;10.10;99.90;;;;;;5071960;28;20218;-75
2021/04/23 01:50:47;;;;;;;4.47;4.07;;;10.00;99.90;;;;;;5072360;28;20206;-74
2021/04/23 01:53:14;;;;;;;4.20;3.80;;;10.00;99.90;;;;;;5072172;28;20210;-78
2021/04/23 01:55:43;;;;;;;5.17;3.97;;;10.00;99.90;;;;;;5072171;28;20206;-74
2021/04/23 01:58:09;;;;;;;4.27;3.57;;;10.00;99.90;;;;;;5072117;28;20213;-74
2021/04/23 02:00:39;;;;;;;6.33;4.40;;;9.90;99.90;;;;;;5072303;28;20206;-77
2021/04/23 02:03:07;;;;;;;3.80;3.40;;;9.90;99.90;;;;;;5071931;28;20229;-78
2021/04/23 02:05:36;;;;;;;4.67;4.23;;;9.80;99.90;;;;;;5072325;28;20205;-78
2021/04/23 02:08:04;;;;;;;6.67;5.33;;;9.70;99.90;;;;;;5071499;28;20202;-76
2021/04/23 02:10:40;;;;;;;4.50;4.10;;;9.70;99.90;;;;;;5071780;28;20206;-78
2021/04/23 02:13:08;;;;;;;4.30;4.00;;;9.80;99.90;;;;;;5071632;28;20198;-75
2021/04/23 02:15:35;;;;;;;5.50;4.40;;;9.70;99.90;;;;;;5072096;28;20214;-75
2021/04/23 02:18:02;;;;;;;4.20;3.80;;;9.60;99.90;;;;;;5071095;28;20198;-73
2021/04/23 02:20:32;;;;;;;4.17;3.87;;;9.60;99.90;;;;;;5071647;28;20210;-75
2021/04/23 02:22:59;;;;;;;4.70;4.30;;;9.60;99.90;;;;;;5072017;28;20207;-75
2021/04/23 02:25:28;;;;;;;4.03;3.70;;;9.60;99.90;;;;;;5072327;28;20581;-76
2021/04/23 02:27:55;;;;;;;4.93;3.50;;;9.50;99.90;;;;;;5071930;28;20279;-74
2021/04/23 02:30:25;;;;;;;6.00;5.47;;;9.40;99.90;;;;;;5070687;28;20210;-76
2021/04/23 02:32:52;;;;;;;4.63;4.13;;;9.30;99.90;;;;;;5070903;28;20210;-73
2021/04/23 02:35:21;;;;;;;4.30;3.90;;;9.40;99.90;;;;;;5071000;28;20226;-75
2021/04/23 02:37:48;;;;;;;4.83;4.43;;;9.40;99.90;;;;;;5071680;28;20241;-74
2021/04/23 02:40:17;;;;;;;5.13;4.37;;;9.40;99.90;;;;;;5070686;28;20210;-74
2021/04/23 02:42:45;;;;;;;7.40;4.87;;;9.30;99.90;;;;;;5071740;28;20210;-76
2021/04/23 02:45:15;;;;;;;4.00;3.60;;;9.30;99.90;;;;;;5070891;28;20209;-73
2021/04/23 02:47:44;;;;;;;4.73;4.30;;;9.20;99.90;;;;;;5071179;28;20218;-74
2021/04/23 02:50:14;;;;;;;6.57;5.50;;;9.20;99.90;;;;;;5070419;28;20611;-74
2021/04/23 02:52:41;;;;;;;7.33;4.87;;;9.20;99.90;;;;;;5071265;28;20206;-75
2021/04/23 02:55:09;;;;;;;8.57;4.73;;;9.30;99.90;;;;;;5070784;28;20622;-73
2021/04/23 02:57:36;;;;;;;5.10;4.60;;;9.20;99.90;;;;;;5071169;28;20261;-75
2021/04/23 03:00:06;;;;;;;4.87;4.47;;;9.30;99.90;;;;;;5070533;28;20202;-74
2021/04/23 03:02:33;;;;;;;4.87;4.47;;;9.30;99.90;;;;;;5070792;28;20743;-74
2021/04/23 03:05:00;;;;;;;7.23;4.13;;;9.10;99.90;;;;;;5071182;28;20239;-73
2021/04/23 03:07:27;;;;;;;4.60;3.77;;;9.10;99.90;;;;;;5071088;28;20209;-73
2021/04/23 03:09:54;;;;;;;5.50;5.00;;;9.20;99.90;;;;;;5071372;28;20210;-72
2021/04/23 03:12:20;;;;;;;4.87;4.37;;;9.10;99.90;;;;;;5070402;28;21023;-73
2021/04/23 03:14:47;;;;;;;4.57;4.17;;;9.10;99.90;;;;;;5070680;28;20293;-72
2021/04/23 03:17:13;;;;;;;3.90;3.50;;;9.00;99.90;;;;;;5070057;28;20237;-73
2021/04/23 03:19:40;;;;;;;6.00;4.03;;;9.00;99.90;;;;;;5070401;28;20584;-73
2021/04/23 03:22:07;;;;;;;4.17;3.87;;;9.00;99.90;;;;;;5070603;28;20210;-72
2021/04/23 03:24:34;;;;;;;4.70;4.27;;;9.00;99.90;;;;;;5070647;28;20228;-72
2021/04/23 03:27:00;;;;;;;5.97;4.23;;;9.00;99.90;;;;;;5070406;28;20198;-72
2021/04/23 03:29:27;;;;;;;5.37;3.57;;;9.00;99.90;;;;;;5070517;28;20217;-73
2021/04/23 03:31:53;;;;;;;4.47;3.77;;;9.00;99.90;;;;;;5070656;28;20289;-75
2021/04/23 03:34:22;;;;;;;3.90;3.60;;;9.00;99.90;;;;;;5070063;28;20657;-71
2021/04/23 03:36:48;;;;;;;5.90;3.63;;;9.10;99.90;;;;;;5070121;28;20279;-73
2021/04/23 03:39:16;;;;;;;4.90;4.30;;;9.00;99.90;;;;;;5070144;28;20210;-72
2021/04/23 03:41:43;;;;;;;4.70;4.00;;;9.00;99.90;;;;;;5069899;28;20213;-75
2021/04/23 03:44:10;;;;;;;4.60;4.07;;;8.90;99.90;;;;;;5069835;28;20229;-76
2021/04/23 03:46:37;;;;;;;5.23;3.77;;;8.80;99.90;;;;;;5070190;28;20217;-77
2021/04/23 03:49:04;;;;;;;7.50;4.10;;;8.80;99.90;;;;;;5069874;28;20209;-75
2021/04/23 03:51:31;;;;;;;4.57;3.83;;;8.80;99.90;;;;;;5070507;28;20263;-77
2021/04/23 03:53:58;;;;;;;5.30;4.30;;;8.80;99.90;;;;;;5070447;28;20248;-77
2021/04/23 03:56:25;;;;;;;3.90;3.50;;;8.80;99.90;;;;;;5070002;28;20226;-74
2021/04/23 03:58:53;;;;;;;4.10;3.80;;;8.80;99.90;;;;;;5069926;28;20203;-76
2021/04/23 04:01:22;;;;;;;4.00;3.70;;;9.00;99.90;;;;;;5070156;28;20214;-76
2021/04/23 04:03:50;;;;;;;4.63;4.00;;;8.90;99.90;;;;;;5070014;28;21218;-74
2021/04/23 04:06:17;;;;;;;4.27;3.43;;;9.00;99.90;;;;;;5070061;28;20221;-74
2021/04/23 04:08:43;;;;;;;4.43;4.03;;;9.00;99.90;;;;;;5070156;28;20275;-75
2021/04/23 04:11:10;;;;;;;4.50;4.07;;;8.90;99.90;;;;;;5069812;28;20206;-76
2021/04/23 04:13:38;;;;;;;6.13;4.00;;;8.90;99.90;;;;;;5070144;28;20267;-74
2021/04/23 04:16:05;;;;;;;5.37;3.87;;;8.90;99.90;;;;;;5069170;28;20233;-76
2021/04/23 04:18:32;;;;;;;4.70;4.23;;;8.80;99.90;;;;;;5070367;28;20206;-75
2021/04/23 04:20:59;;;;;;;5.47;4.53;;;8.70;99.90;;;;;;5070236;28;20255;-75
2021/04/23 04:23:26;;;;;;;5.43;4.13;;;8.70;99.90;;;;;;5070022;28;20262;-75
2021/04/23 04:25:56;;;;;;;4.00;3.70;;;8.60;99.90;;;;;;5070024;28;20264;-75
2021/04/23 04:28:23;;;;;;;4.50;4.10;;;8.70;99.90;;;;;;5069281;28;20206;-76
2021/04/23 04:30:51;;;;;;;3.97;3.60;;;8.70;99.90;;;;;;5070411;28;20217;-76
2021/04/23 04:33:17;;;;;;;6.37;4.63;;;8.70;99.90;;;;;;5069495;28;20251;-75
2021/04/23 04:35:45;;;;;;;7.90;4.93;;;8.80;99.90;;;;;;5069996;28;20271;-78
2021/04/23 04:38:13;;;;;;;4.53;3.67;;;8.80;99.90;;;;;;5069572;28;20308;-77
2021/04/23 04:40:41;;;;;;;4.90;4.20;;;8.80;99.90;;;;;;5069855;28;20582;-75
2021/04/23 04:43:09;;;;;;;4.67;4.03;;;8.80;99.90;;;;;;5069188;28;20210;-76
2021/04/23 04:45:36;;;;;;;5.20;4.37;;;8.80;99.90;;;;;;5069815;28;20259;-75
2021/04/23 04:48:06;;;;;;;5.10;4.50;;;8.80;99.90;;;;;;5069447;28;20226;-73
2021/04/23 04:50:34;;;;;;;9.60;5.60;;;8.70;99.90;;;;;;5069666;28;20232;-74
2021/04/23 04:53:03;;;;;;;8.47;4.97;;;8.70;99.90;;;;;;5069282;28;20229;-73
2021/04/23 04:55:33;;;;;;;5.17;4.53;;;8.70;99.90;;;;;;5072008;28;20597;-73
2021/04/23 04:58:01;;;;;;;6.07;5.10;;;8.70;99.90;;;;;;5073427;28;20234;-72
2021/04/23 05:00:29;;;;;;;17.20;6.30;;;8.60;99.90;;;;;;5073069;28;20252;-73
2021/04/23 05:02:56;;;;;;;6.33;5.67;;;8.60;99.90;;;;;;5073582;28;20206;-73
2021/04/23 05:05:24;;;;;;;6.07;5.27;;;8.60;99.90;;;;;;5072377;28;20214;-73
2021/04/23 05:07:51;;;;;;;6.40;5.40;;;8.60;99.90;;;;;;5073597;28;20209;-74
2021/04/23 05:10:17;;;;;;;5.90;5.30;;;8.60;99.90;;;;;;5073029;28;20553;-75
2021/04/23 05:12:44;;;;;;;5.67;5.00;;;8.70;99.90;;;;;;5072722;28;20530;-76
2021/04/23 05:15:12;;;;;;;5.77;5.00;;;8.60;99.90;;;;;;5072696;28;20210;-73
2021/04/23 05:17:39;;;;;;;6.60;5.20;;;8.60;99.90;;;;;;5072532;28;20598;-73
2021/04/23 05:20:07;;;;;;;6.57;5.23;;;8.60;99.90;;;;;;5072672;28;20201;-76
2021/04/23 05:22:35;;;;;;;4.97;4.50;;;8.60;99.90;;;;;;5073177;28;20585;-76
2021/04/23 05:25:02;;;;;;;7.43;5.13;;;8.60;99.90;;;;;;5072177;28;20248;-73
2021/04/23 05:27:29;;;;;;;7.73;6.00;;;8.60;99.90;;;;;;5073224;28;20217;-73
2021/04/23 05:29:55;;;;;;;11.70;7.60;;;8.60;99.90;;;;;;5073056;28;20198;-73
2021/04/23 05:32:22;;;;;;;9.50;6.67;;;8.70;99.90;;;;;;5072345;28;20206;-74
2021/04/23 05:34:49;;;;;;;9.57;6.83;;;8.70;99.90;;;;;;5072700;28;20295;-74
2021/04/23 05:37:16;;;;;;;8.17;6.97;;;8.80;99.90;;;;;;5072517;28;20233;-75
2021/04/23 05:39:44;;;;;;;9.80;6.77;;;8.80;99.90;;;;;;5072233;28;20210;-76
2021/04/23 05:42:11;;;;;;;10.83;9.73;;;8.90;99.90;;;;;;5058480;28;20206;-75
2021/04/23 05:44:37;;;;;;;22.87;18.00;;;8.90;99.90;;;;;;5072729;28;20206;-76
2021/04/23 05:47:05;;;;;;;23.53;17.90;;;9.10;99.90;;;;;;5071495;28;20701;-75
2021/04/23 05:49:32;;;;;;;34.60;25.23;;;9.10;99.90;;;;;;5072612;28;20206;-77
2021/04/23 05:51:59;;;;;;;27.00;19.37;;;9.20;99.90;;;;;;5072558;28;20344;-78
2021/04/23 05:54:25;;;;;;;15.30;11.10;;;9.20;99.90;;;;;;5072541;28;20292;-79
2021/04/23 05:56:53;;;;;;;14.37;10.27;;;9.20;99.90;;;;;;5072213;28;20709;-76
2021/04/23 05:59:20;;;;;;;13.17;7.53;;;9.30;99.90;;;;;;5072197;28;20206;-79
2021/04/23 06:01:47;;;;;;;8.80;7.83;;;9.30;99.90;;;;;;5071916;28;20214;-71
2021/04/23 06:04:14;;;;;;;7.60;6.57;;;9.30;99.90;;;;;;5060057;28;20210;-76
2021/04/23 06:06:40;;;;;;;7.30;6.60;;;9.40;99.90;;;;;;5070125;28;20607;-76
2021/04/23 06:09:08;;;;;;;11.73;8.03;;;9.60;99.90;;;;;;5070098;28;20203;-76
2021/04/23 06:11:35;;;;;;;12.10;9.63;;;9.70;99.90;;;;;;5072060;28;20206;-72
2021/04/23 06:14:03;;;;;;;8.73;7.93;;;9.80;99.90;;;;;;5071744;28;20298;-71
2021/04/23 06:16:30;;;;;;;6.37;5.63;;;10.00;99.90;;;;;;5072035;28;20233;-71
2021/04/23 06:18:57;;;;;;;7.30;6.60;;;10.00;99.90;;;;;;5072511;28;20614;-75
2021/04/23 06:21:23;;;;;;;7.17;6.57;;;10.00;99.90;;;;;;5071722;28;20209;-74
2021/04/23 06:23:50;;;;;;;6.60;6.00;;;10.10;99.90;;;;;;5071492;28;20775;-73
2021/04/23 06:26:17;;;;;;;5.77;5.17;;;10.20;99.90;;;;;;5071516;28;20210;-77
2021/04/23 06:28:44;;;;;;;5.97;5.23;;;10.10;99.90;;;;;;5071653;28;20210;-76
2021/04/23 06:31:13;;;;;;;8.07;6.37;;;10.20;99.90;;;;;;5071279;28;20212;-76
2021/04/23 06:33:41;;;;;;;9.70;6.00;;;10.30;99.90;;;;;;5058023;28;20270;-76
2021/04/23 06:36:08;;;;;;;5.90;5.00;;;10.40;99.90;;;;;;5071419;28;20238;-76
2021/04/23 06:38:36;;;;;;;6.27;5.67;;;10.50;99.90;;;;;;5071077;28;20202;-78
2021/04/23 06:41:03;;;;;;;8.57;5.70;;;10.70;99.90;;;;;;5063439;28;20213;-77
2021/04/23 06:43:30;;;;;;;5.43;4.63;;;10.80;99.90;;;;;;5066991;28;20218;-76
2021/04/23 06:45:56;;;;;;;5.77;4.40;;;11.00;99.90;;;;;;5062033;28;20684;-76
2021/04/23 06:48:24;;;;;;;5.30;4.47;;;11.20;99.90;;;;;;5089317;28;20300;-76
2021/04/23 06:50:51;;;;;;;6.37;4.90;;;11.30;99.90;;;;;;5090277;28;20255;-77
2021/04/23 06:53:18;;;;;;;6.33;5.07;;;11.40;99.90;;;;;;5090806;28;20205;-77
2021/04/23 06:55:46;;;;;;;8.40;5.10;;;11.30;99.90;;;;;;5090989;28;20236;-78
2021/04/23 06:58:13;;;;;;;6.50;5.73;;;11.60;99.90;;;;;;5085932;28;20618;-80
2021/04/23 07:00:42;;;;;;;5.97;5.37;;;11.70;99.90;;;;;;5074865;28;20214;-81
2021/04/23 07:03:11;;;;;;;4.73;4.17;;;11.80;99.90;;;;;;5085618;28;20205;-80
2021/04/23 07:05:40;;;;;;;4.23;3.83;;;12.00;99.90;;;;;;5071075;28;20206;-79
2021/04/23 07:08:06;;;;;;;5.57;4.97;;;12.00;99.90;;;;;;5083503;28;20217;-80
2021/04/23 07:10:33;;;;;;;5.60;4.20;;;12.00;99.90;;;;;;5077879;28;20202;-81
2021/04/23 07:13:00;;;;;;;4.20;3.87;;;12.20;99.90;;;;;;5081529;28;20673;-73
2021/04/23 07:15:29;;;;;;;7.07;4.47;;;12.10;99.90;;;;;;5077070;28;20209;-77
2021/04/23 07:17:56;;;;;;;5.10;3.83;;;12.20;99.90;;;;;;5071287;28;20237;-73
2021/04/23 07:20:24;;;;;;;5.27;4.17;;;12.30;99.90;;;;;;5066675;28;20564;-79
2021/04/23 07:22:52;;;;;;;7.30;3.93;;;12.50;99.90;;;;;;5066719;28;20271;-73
2021/04/23 07:25:19;;;;;;;5.30;4.40;;;12.70;99.90;;;;;;5077526;28;20217;-73
2021/04/23 07:27:46;;;;;;;6.17;4.13;;;12.70;99.90;;;;;;5073684;28;20209;-73
2021/04/23 07:30:15;;;;;;;5.78;4.22;;;12.90;99.90;;;;;;5084643;28;20461;-73
2021/04/23 07:32:42;;;;;;;5.50;4.50;;;13.00;99.90;;;;;;5077817;28;20203;-74
2021/04/23 07:35:09;;;;;;;4.50;4.10;;;13.10;99.90;;;;;;5082191;28;20205;-75
2021/04/23 07:37:37;;;;;;;5.50;3.92;;;13.20;99.90;;;;;;5070090;28;20580;-75
2021/04/23 07:40:07;;;;;;;4.72;3.90;;;13.30;99.90;;;;;;5072535;28;20241;-74
2021/04/23 07:42:33;;;;;;;3.60;3.30;;;13.60;99.90;;;;;;5072840;28;20644;-74
2021/04/23 07:45:01;;;;;;;4.43;4.03;;;13.70;99.90;;;;;;5078474;28;20210;-75
2021/04/23 07:47:28;;;;;;;6.97;4.33;;;13.70;99.90;;;;;;5079727;28;20740;-76
2021/04/23 07:49:55;;;;;;;5.40;3.70;;;13.80;99.90;;;;;;5072350;28;20673;-74
2021/04/23 07:52:22;;;;;;;5.45;4.53;;;14.00;99.90;;;;;;5084389;28;20688;-74
2021/04/23 07:54:48;;;;;;;6.03;3.97;;;14.00;99.90;;;;;;5069566;28;20224;-73
2021/04/23 07:57:16;;;;;;;7.55;4.38;;;14.10;99.90;;;;;;5080897;28;20233;-74
2021/04/23 07:59:42;;;;;;;5.63;4.43;;;14.30;99.90;;;;;;5064800;28;20268;-73
2021/04/23 08:02:10;;;;;;;4.30;3.88;;;14.50;99.90;;;;;;5084667;28;20240;-74
2021/04/23 08:04:39;;;;;;;4.60;4.20;;;14.50;99.90;;;;;;5089257;28;20215;-74
2021/04/23 08:07:06;;;;;;;6.22;3.63;;;14.80;99.90;;;;;;5086775;28;20665;-74
2021/04/23 08:09:32;;;;;;;7.45;4.30;;;15.20;99.90;;;;;;5066179;28;20206;-72
2021/04/23 08:11:59;;;;;;;4.25;3.65;;;15.40;99.90;;;;;;5056012;28;20206;-74
2021/04/23 08:14:27;;;;;;;5.82;3.45;;;15.70;99.90;;;;;;5060548;28;20202;-75
2021/04/23 08:16:53;;;;;;;6.45;4.22;;;15.40;99.90;;;;;;5051075;28;20721;-73
2021/04/23 08:19:20;;;;;;;3.90;3.60;;;15.90;99.90;;;;;;5052458;28;20260;-74
2021/04/23 08:21:47;;;;;;;4.10;3.50;;;16.10;99.90;;;;;;5074950;28;20202;-73
2021/04/23 08:24:14;;;;;;;6.03;3.42;;;16.40;99.90;;;;;;5064641;28;20207;-74
2021/04/23 08:26:43;;;;;;;4.00;3.60;;;16.60;99.90;;;;;;5080295;28;20221;-75
2021/04/23 08:29:10;;;;;;;4.22;3.33;;;16.70;99.90;;;;;;5067890;28;20648;-74
2021/04/23 08:31:38;;;;;;;4.85;3.35;;;16.80;99.90;;;;;;5079517;28;20242;-72
2021/04/23 08:34:05;;;;;;;3.35;3.05;;;16.90;99.90;;;;;;5064483;28;20207;-73
2021/04/23 08:36:32;;;;;;;3.60;3.30;;;17.30;99.90;;;;;;5080597;28;20720;-72
2021/04/23 08:39:00;;;;;;;3.30;2.67;;;17.80;99.90;;;;;;5086497;28;20210;-72
2021/04/23 08:41:26;;;;;;;3.65;2.90;;;18.10;99.90;;;;;;5079244;28;21048;-72
2021/04/23 08:43:53;;;;;;;3.90;2.95;;;19.20;99.90;;;;;;5092808;28;20208;-71
2021/04/23 08:46:19;;;;;;;4.55;2.78;;;19.00;99.90;;;;;;5091694;28;20688;-72
2021/04/23 08:48:49;;;;;;;4.10;3.45;;;19.30;99.90;;;;;;5086624;28;20213;-72
2021/04/23 08:51:19;;;;;;;4.13;2.90;;;20.70;99.90;;;;;;5082987;28;20205;-72
2021/04/23 08:53:46;;;;;;;4.65;3.05;;;19.80;99.90;;;;;;5073478;28;20205;-71
2021/04/23 08:56:13;;;;;;;3.85;3.22;;;19.40;99.90;;;;;;5061958;28;20214;-72
2021/04/23 08:58:39;;;;;;;4.47;3.20;;;19.60;99.90;;;;;;5064228;28;20694;-72
2021/04/23 09:01:06;;;;;;;3.88;3.25;;;19.60;99.90;;;;;;5058593;28;20736;-70
2021/04/23 09:03:32;;;;;;;5.95;3.47;;;19.60;99.90;;;;;;5062200;28;20308;-70
2021/04/23 09:06:11;;;;;;;4.18;2.38;;;19.60;99.90;;;;;;5075521;28;20209;-71
2021/04/23 09:08:57;;;;;;;5.63;3.13;;;19.60;99.90;;;;;;5064259;28;20313;-72
2021/04/23 09:11:25;;;;;;;2.80;2.53;;;20.10;99.90;;;;;;5057246;28;20293;-69
2021/04/23 09:13:53;;;;;;;2.35;2.15;;;20.50;99.90;;;;;;5059724;28;20213;-70
2021/04/23 09:16:21;;;;;;;7.50;3.40;;;21.00;99.90;;;;;;5065587;28;20224;-72
2021/04/23 09:18:47;;;;;;;2.92;2.63;;;21.40;99.90;;;;;;5073012;28;20206;-69
2021/04/23 09:21:15;;;;;;;4.07;2.83;;;21.20;99.90;;;;;;5073177;28;20202;-70
2021/04/23 09:23:50;;;;;;;32.17;5.88;;;21.10;99.90;;;;;;5076335;28;20662;-70
2021/04/23 09:26:33;;;;;;;5.97;2.65;;;21.40;99.90;;;;;;5081815;28;20699;-70
2021/04/23 09:29:00;;;;;;;3.38;2.28;;;22.10;99.90;;;;;;5086012;28;20209;-70
2021/04/23 09:31:30;;;;;;;4.57;2.50;;;22.70;99.90;;;;;;5083037;28;20224;-71
2021/04/23 09:33:58;;;;;;;8.30;3.10;;;23.30;99.90;;;;;;5087560;28;20209;-70
2021/04/23 09:36:33;;;;;;;4.13;2.17;;;23.90;99.90;;;;;;5081633;28;20210;-69
2021/04/23 09:39:11;;;;;;;5.72;2.20;;;24.80;99.90;;;;;;5069707;28;20453;-71
2021/04/23 09:41:38;;;;;;;3.72;1.98;;;24.90;99.90;;;;;;5057831;28;20357;-71
2021/04/23 09:44:24;;;;;;;5.40;1.70;;;25.20;99.90;;;;;;5065074;28;20252;-70
2021/04/23 09:46:57;;;;;;;2.08;1.90;;;25.70;99.90;;;;;;5069894;28;20626;-70
2021/04/23 09:49:24;;;;;;;10.82;3.70;;;25.70;99.90;;;;;;5058374;28;20216;-70
2021/04/23 09:51:51;;;;;;;2.88;2.10;;;27.40;99.90;;;;;;5059179;28;20203;-70
2021/04/23 09:54:19;;;;;;;2.90;1.83;;;28.60;99.90;;;;;;5058069;28;20252;-70
2021/04/23 09:56:46;;;;;;;2.30;2.10;;;28.40;99.90;;;;;;5056571;28;20230;-70
2021/04/23 09:59:22;;;;;;;3.35;2.55;;;28.00;99.90;;;;;;5054910;28;20211;-72
2021/04/23 10:01:54;;;;;;;2.47;2.25;;;28.40;99.90;;;;;;5051466;28;20256;-70
2021/04/23 10:04:27;;;;;;;3.05;2.55;;;29.20;99.90;;;;;;5059116;28;20744;-72
2021/04/23 10:07:11;;;;;;;2.13;1.98;;;29.40;99.90;;;;;;5073029;28;20220;-70
2021/04/23 10:09:56;;;;;;;4.80;2.03;;;29.70;99.90;;;;;;5060127;28;20206;-69
2021/04/23 10:12:40;;;;;;;3.97;2.33;;;29.90;99.90;;;;;;5072212;28;20210;-70
2021/04/23 10:15:12;;;;;;;3.03;1.83;;;29.90;99.90;;;;;;5082155;28;20208;-70
2021/04/23 10:17:39;;;;;;;2.33;2.15;;;29.50;99.90;;;;;;5072021;28;20628;-71
2021/04/23 10:20:07;;;;;;;1.85;1.58;;;29.60;99.90;;;;;;5086769;28;20202;-71
2021/04/23 10:22:34;;;;;;;2.63;2.22;;;29.40;99.90;;;;;;5091974;28;20255;-69
2021/04/23 10:25:01;;;;;;;2.65;1.88;;;30.50;99.90;;;;;;5084659;28;20209;-71
2021/04/23 10:27:28;;;;;;;2.72;1.90;;;28.50;99.90;;;;;;5072778;28;20206;-71
2021/04/23 10:29:54;;;;;;;2.50;2.17;;;28.30;99.90;;;;;;5088441;28;20251;-71
2021/04/23 10:32:22;;;;;;;3.05;2.30;;;27.30;99.90;;;;;;5080882;28;20209;-72
2021/04/23 10:34:49;;;;;;;2.95;1.88;;;24.00;99.90;;;;;;5090616;28;20209;-72
2021/04/23 10:37:16;;;;;;;3.70;1.63;;;22.60;99.90;;;;;;5090766;28;20255;-69
2021/04/23 10:39:46;;;;;;;2.35;2.15;;;22.40;99.90;;;;;;5091340;28;20285;-70
2021/04/23 10:42:42;;;;;;;1.83;1.73;;;22.50;99.90;;;;;;5064435;28;20565;-69
2021/04/23 10:45:25;;;;;;;2.60;2.00;;;22.30;99.90;;;;;;5089895;28;20717;-68
2021/04/23 10:47:55;;;;;;;2.00;1.90;;;22.40;99.90;;;;;;5076545;28;20217;-70
2021/04/23 10:50:23;;;;;;;4.05;2.40;;;22.30;99.90;;;;;;5088097;28;20235;-70
2021/04/23 10:53:06;;;;;;;2.90;2.42;;;22.50;99.90;;;;;;5076265;28;20210;-71
2021/04/23 10:55:48;;;;;;;3.38;2.53;;;22.90;99.90;;;;;;5078026;28;20194;-69
2021/04/23 10:58:18;;;;;;;2.53;2.15;;;22.80;99.90;;;;;;5076674;28;20271;-70
2021/04/23 11:00:46;;;;;;;3.00;2.13;;;23.00;99.90;;;;;;5081647;28;20206;-69
2021/04/23 11:03:27;;;;;;;3.40;2.88;;;23.20;99.90;;;;;;5076991;28;20213;-71
2021/04/23 11:05:55;;;;;;;2.33;2.13;;;23.30;99.90;;;;;;5081897;28;20197;-69
2021/04/23 11:08:23;;;;;;;2.13;1.90;;;23.00;99.90;;;;;;5076882;28;20214;-69
2021/04/23 11:11:16;;;;;;;2.08;1.83;;;22.50;99.90;;;;;;5080518;28;20205;-70
2021/04/23 11:13:53;;;;;;;2.22;2.03;;;22.60;99.90;;;;;;5076526;28;20210;-69
2021/04/23 11:16:31;;;;;;;1.95;1.85;;;22.40;99.90;;;;;;5071524;28;20595;-69
2021/04/23 11:19:00;;;;;;;1.92;1.80;;;22.40;99.90;;;;;;5071160;28;20244;-70
2021/04/23 11:21:40;;;;;;;2.42;2.08;;;22.30;99.90;;;;;;5071057;28;20206;-70
2021/04/23 11:24:14;;;;;;;2.20;1.63;;;22.40;99.90;;;;;;5064426;28;20202;-70
2021/04/23 11:27:08;;;;;;;3.08;1.98;;;22.40;99.90;;;;;;5068689;28;20266;-72
2021/04/23 11:29:40;;;;;;;4.47;1.80;;;22.60;99.90;;;;;;5085482;28;20201;-70
2021/04/23 11:32:17;;;;;;;1.95;1.85;;;22.60;99.90;;;;;;5079979;28;20750;-70
2021/04/23 11:34:46;;;;;;;4.85;2.10;;;22.60;99.90;;;;;;5085653;28;20202;-69
2021/04/23 11:37:15;;;;;;;2.10;1.90;;;22.80;99.90;;;;;;5087632;28;20229;-70
2021/04/23 11:39:45;;;;;;;2.80;2.60;;;22.60;99.90;;;;;;5086193;28;20565;-69
2021/04/23 11:42:17;;;;;;;2.28;1.77;;;22.90;99.90;;;;;;5064381;28;20673;-69
2021/04/23 11:44:48;;;;;;;3.22;2.10;;;23.00;99.90;;;;;;5086459;28;20205;-68
2021/04/23 11:47:15;;;;;;;2.03;1.80;;;23.10;99.90;;;;;;5087994;28;20205;-69
2021/04/23 11:49:42;;;;;;;2.63;2.05;;;23.10;99.90;;;;;;5087326;28;20217;-69
2021/04/23 11:52:09;;;;;;;3.38;1.88;;;22.60;99.90;;;;;;5085958;28;20212;-68
2021/04/23 11:54:42;;;;;;;1.63;1.52;;;22.80;99.90;;;;;;5083278;28;20556;-69
2021/04/23 11:57:11;;;;;;;2.42;1.70;;;22.90;99.90;;;;;;5085017;28;20221;-69
2021/04/23 11:59:56;;;;;;;2.03;1.65;;;22.90;99.90;;;;;;5078623;28;20213;-70
2021/04/23 12:02:46;;;;;;;3.35;1.80;;;22.90;99.90;;;;;;5073889;28;20203;-69
2021/04/23 12:05:37;;;;;;;2.20;1.88;;;23.00;99.90;;;;;;5069405;28;20298;-70
2021/04/23 12:08:07;;;;;;;2.50;1.40;;;23.30;99.90;;;;;;5073160;28;20216;-72
2021/04/23 12:10:36;;;;;;;1.58;1.48;;;23.20;99.90;;;;;;5087716;28;20256;-69
2021/04/23 12:13:08;;;;;;;2.65;1.85;;;23.00;99.90;;;;;;5085830;28;20206;-71
2021/04/23 12:15:36;;;;;;;1.33;1.25;;;23.40;99.90;;;;;;5083225;28;20203;-71
2021/04/23 12:18:05;;;;;;;1.63;1.52;;;23.30;99.90;;;;;;5063445;28;20229;-71
2021/04/23 12:20:35;;;;;;;5.75;1.95;;;23.40;99.90;;;;;;5081331;28;20209;-70
2021/04/23 12:23:03;;;;;;;2.50;1.73;;;23.00;99.90;;;;;;5091487;28;20681;-71
2021/04/23 12:25:33;;;;;;;1.65;1.55;;;22.90;99.90;;;;;;5081894;28;20207;-71
2021/04/23 12:28:26;;;;;;;1.70;1.60;;;23.20;99.90;;;;;;5087154;28;20665;-67
2021/04/23 12:30:55;;;;;;;1.90;1.58;;;23.10;99.90;;;;;;5095867;28;20201;-68
2021/04/23 12:33:22;;;;;;;1.75;1.65;;;23.20;99.90;;;;;;5081427;28;20201;-68
2021/04/23 12:35:51;;;;;;;3.95;1.75;;;23.20;99.90;;;;;;5075497;28;20206;-69
2021/04/23 12:38:37;;;;;;;2.20;1.80;;;23.50;99.90;;;;;;5075928;28;20237;-68
2021/04/23 12:41:18;;;;;;;1.73;1.17;;;23.50;99.90;;;;;;5078925;28;20251;-71
2021/04/23 12:43:45;;;;;;;1.65;1.55;;;23.40;99.90;;;;;;5087894;28;20205;-71
2021/04/23 12:46:22;;;;;;;1.50;1.40;;;23.60;99.90;;;;;;5065287;28;20217;-69
2021/04/23 12:49:03;;;;;;;1.95;1.73;;;23.10;99.90;;;;;;5066949;28;20222;-70
2021/04/23 12:51:31;;;;;;;1.73;1.63;;;23.20;99.90;;;;;;5065915;28;20210;-68
2021/04/23 12:53:58;;;;;;;3.92;2.25;;;23.10;99.90;;;;;;5066767;28;20198;-68
2021/04/23 12:56:26;;;;;;;2.70;1.58;;;23.30;99.90;;;;;;5064097;28;20218;-67
2021/04/23 12:58:54;;;;;;;2.03;1.90;;;23.60;99.90;;;;;;5066804;28;20225;-68
2021/04/23 13:01:22;;;;;;;2.33;1.67;;;23.70;99.90;;;;;;5085568;28;20217;-70